EDDH

Hamburg Airport

Hamburg, Germany
METAR EDDH 260250Z 02005KT 350V050 9999 -SN FEW007 SCT020 BKN039 M05/M07 Q1033 R05/550295 R15/590293 TEMPO 2500 SN BKN008
Observed Flight Rules
Feb-26 @ 02:50 UTC (35 minutes ago) Visual Flight Rules
Wind Visibility Clouds Conditions
20° at 5 knots 10,000+ meters
  • Few at 700' AGL
  • Scattered at 2,000' AGL
  • Broken at 3,900' AGL
  • Light Snow
Temperatures Readings
Current -5°C / 23°F
Dewpoint -7°C / 19°F
Humidity 86%
Altimeter 30.5" Hg
Pressure 1033 hPa
Elevation 16
METAR EDDH 260250Z 02005KT 350V050 9999 -SN FEW007 SCT020 BKN039 M05/M07 Q1033 R05/550295 R15/590293 TEMPO 2500 SN BKN008
Observed Flight Rules
Feb-26 @ 02:50 UTC
(35 minutes ago)
VFR
Wind Visibility
20° at 5 knots 10,000+ meters
Clouds
  • Few at 700' AGL
  • Scattered at 2,000' AGL
  • Broken at 3,900' AGL
Conditions
  • Light Snow
Temperature Dewpoint
-5°C / 23°F -7°C / 19°F
Humidity Altimeter Pressure
86% 30.5" Hg 1033 hPa